Ana Sayfa
METAR-TAF:

METAR-TAF

Havaalanları :

Porter County Municipal Airport

Valparaiso, Indiana, Amerika Birleşik Devletleri

Enlem: 41-27-11N, Boylam: 086-59-53W, yükseklik: 234 m

Güncel hava durumu gözlemi

Rapor saat 11:56 UTC de 1 saat ve 0 dakika önce yapıldı.
Rüzgar güney/güneybatıdan 12 kt
Sıcaklık 23°C
Nem 73%
Basınç 1014 hPa
Görüş mesafesi: 16.1 km
10000 ft yükseklikte parçalı bulutlu

METAR: KVPZ 251156Z AUTO 21012KT 10SM SCT100 23/18 A2993 RMK AO2 SLP129 70001 T02280178 10239 20222 53015

Saat: 07:56 (12:56 UTC)


TAF: eksik

4.000'den fazla havaalanı için hava durumu gözlemleri ve tahminleri (METAR ve TAF raporları).

Kullanılabilir istasyonlar harita üzerinde sarı ve kırmızı noktalarla gösterilir.

İstasyonun adını görmek için fareyi noktanın üzerinde gezdirin.

Sonrasında hava gözlem ve tahminlerini görmek için tıklayın.

Haritayı değiştirmek için: yaklaştırmak için siyah artı işaretli yeşil düğmeye ve uzaklaştırmak için de eksi işaretli düğmeye hızla tıklayın; bitişik haritalar için yeşil okları kullanın.


METAR-TAF: